sensor_id;sensor_type;location;lat;lon;timestamp;P1;durP1;ratioP1;P2;durP2;ratioP2
25091;SDS011;13082;52.374;4.946;2024-03-29T00:00:44;7.97;;;1.67;;
25091;SDS011;13082;52.374;4.946;2024-03-29T00:03:10;3.27;;;1.30;;
25091;SDS011;13082;52.374;4.946;2024-03-29T00:05:36;2.73;;;0.97;;
25091;SDS011;13082;52.374;4.946;2024-03-29T00:08:03;3.03;;;1.27;;
25091;SDS011;13082;52.374;4.946;2024-03-29T00:10:29;6.20;;;1.43;;
25091;SDS011;13082;52.374;4.946;2024-03-29T00:12:54;1.53;;;1.07;;
25091;SDS011;13082;52.374;4.946;2024-03-29T00:15:20;1.53;;;1.10;;
25091;SDS011;13082;52.374;4.946;2024-03-29T00:17:46;4.63;;;1.73;;
25091;SDS011;13082;52.374;4.946;2024-03-29T00:20:11;2.57;;;1.27;;
25091;SDS011;13082;52.374;4.946;2024-03-29T00:22:37;2.40;;;1.00;;
25091;SDS011;13082;52.374;4.946;2024-03-29T00:25:03;7.67;;;1.80;;
25091;SDS011;13082;52.374;4.946;2024-03-29T00:27:29;4.77;;;1.47;;
25091;SDS011;13082;52.374;4.946;2024-03-29T00:29:55;1.77;;;1.07;;
25091;SDS011;13082;52.374;4.946;2024-03-29T00:32:21;12.43;;;1.87;;
25091;SDS011;13082;52.374;4.946;2024-03-29T00:34:51;2.27;;;1.00;;
25091;SDS011;13082;52.374;4.946;2024-03-29T00:37:17;5.67;;;1.63;;
25091;SDS011;13082;52.374;4.946;2024-03-29T00:39:43;2.87;;;1.07;;
25091;SDS011;13082;52.374;4.946;2024-03-29T00:42:09;4.10;;;1.17;;
25091;SDS011;13082;52.374;4.946;2024-03-29T00:44:37;7.50;;;2.30;;
25091;SDS011;13082;52.374;4.946;2024-03-29T00:47:04;12.97;;;1.40;;
25091;SDS011;13082;52.374;4.946;2024-03-29T00:49:30;4.53;;;1.33;;
25091;SDS011;13082;52.374;4.946;2024-03-29T00:51:56;6.37;;;1.27;;
25091;SDS011;13082;52.374;4.946;2024-03-29T00:54:21;2.30;;;1.00;;
25091;SDS011;13082;52.374;4.946;2024-03-29T00:56:50;1.23;;;1.10;;
25091;SDS011;13082;52.374;4.946;2024-03-29T00:59:16;6.03;;;1.43;;
25091;SDS011;13082;52.374;4.946;2024-03-29T01:01:42;2.93;;;1.00;;
25091;SDS011;13082;52.374;4.946;2024-03-29T01:04:08;4.23;;;1.30;;
25091;SDS011;13082;52.374;4.946;2024-03-29T01:06:33;3.97;;;1.10;;
25091;SDS011;13082;52.374;4.946;2024-03-29T01:09:02;6.13;;;1.47;;
25091;SDS011;13082;52.374;4.946;2024-03-29T01:11:29;4.07;;;1.13;;
25091;SDS011;13082;52.374;4.946;2024-03-29T01:13:55;5.60;;;1.50;;
25091;SDS011;13082;52.374;4.946;2024-03-29T01:16:20;5.90;;;1.57;;
25091;SDS011;13082;52.374;4.946;2024-03-29T01:18:46;4.37;;;1.87;;
25091;SDS011;13082;52.374;4.946;2024-03-29T01:21:12;5.13;;;1.20;;
25091;SDS011;13082;52.374;4.946;2024-03-29T01:23:38;2.00;;;1.10;;
25091;SDS011;13082;52.374;4.946;2024-03-29T01:26:04;1.67;;;1.17;;
25091;SDS011;13082;52.374;4.946;2024-03-29T01:28:30;4.17;;;1.30;;
25091;SDS011;13082;52.374;4.946;2024-03-29T01:30:56;3.80;;;1.33;;
25091;SDS011;13082;52.374;4.946;2024-03-29T01:33:23;2.50;;;1.00;;
25091;SDS011;13082;52.374;4.946;2024-03-29T01:35:49;1.87;;;1.23;;
25091;SDS011;13082;52.374;4.946;2024-03-29T01:38:15;2.90;;;1.10;;
25091;SDS011;13082;52.374;4.946;2024-03-29T01:40:41;3.70;;;1.20;;
25091;SDS011;13082;52.374;4.946;2024-03-29T01:43:06;4.13;;;1.00;;
25091;SDS011;13082;52.374;4.946;2024-03-29T01:45:34;2.67;;;1.13;;
25091;SDS011;13082;52.374;4.946;2024-03-29T01:48:03;4.00;;;1.00;;
25091;SDS011;13082;52.374;4.946;2024-03-29T01:50:29;1.90;;;1.00;;
25091;SDS011;13082;52.374;4.946;2024-03-29T01:52:55;7.17;;;1.30;;
25091;SDS011;13082;52.374;4.946;2024-03-29T01:55:21;1.37;;;0.90;;
25091;SDS011;13082;52.374;4.946;2024-03-29T01:57:47;3.33;;;1.20;;
25091;SDS011;13082;52.374;4.946;2024-03-29T02:00:13;3.43;;;1.00;;
25091;SDS011;13082;52.374;4.946;2024-03-29T02:02:39;1.77;;;1.20;;
25091;SDS011;13082;52.374;4.946;2024-03-29T02:05:05;1.57;;;0.97;;
25091;SDS011;13082;52.374;4.946;2024-03-29T02:07:31;4.23;;;2.03;;
25091;SDS011;13082;52.374;4.946;2024-03-29T02:09:57;3.73;;;1.50;;
25091;SDS011;13082;52.374;4.946;2024-03-29T02:12:23;1.00;;;0.97;;
25091;SDS011;13082;52.374;4.946;2024-03-29T02:14:48;0.73;;;0.73;;
25091;SDS011;13082;52.374;4.946;2024-03-29T02:17:14;5.10;;;1.37;;
25091;SDS011;13082;52.374;4.946;2024-03-29T02:19:40;4.13;;;1.90;;
25091;SDS011;13082;52.374;4.946;2024-03-29T02:22:05;2.00;;;1.10;;
25091;SDS011;13082;52.374;4.946;2024-03-29T02:24:35;2.03;;;1.10;;
25091;SDS011;13082;52.374;4.946;2024-03-29T02:27:01;2.43;;;1.10;;
25091;SDS011;13082;52.374;4.946;2024-03-29T02:29:27;3.50;;;1.57;;
25091;SDS011;13082;52.374;4.946;2024-03-29T02:31:54;1.80;;;1.20;;
25091;SDS011;13082;52.374;4.946;2024-03-29T02:34:20;2.60;;;1.40;;
25091;SDS011;13082;52.374;4.946;2024-03-29T02:36:45;4.43;;;1.13;;
25091;SDS011;13082;52.374;4.946;2024-03-29T02:39:11;2.03;;;0.83;;
25091;SDS011;13082;52.374;4.946;2024-03-29T02:41:36;0.87;;;0.83;;
25091;SDS011;13082;52.374;4.946;2024-03-29T02:44:02;2.33;;;1.10;;
25091;SDS011;13082;52.374;4.946;2024-03-29T02:46:28;2.50;;;1.10;;
25091;SDS011;13082;52.374;4.946;2024-03-29T02:48:53;2.17;;;1.53;;
25091;SDS011;13082;52.374;4.946;2024-03-29T02:51:19;1.00;;;1.00;;
25091;SDS011;13082;52.374;4.946;2024-03-29T02:53:44;3.13;;;1.10;;
25091;SDS011;13082;52.374;4.946;2024-03-29T02:56:10;1.63;;;0.77;;
25091;SDS011;13082;52.374;4.946;2024-03-29T02:58:35;2.53;;;1.20;;
25091;SDS011;13082;52.374;4.946;2024-03-29T03:01:06;5.33;;;1.43;;
25091;SDS011;13082;52.374;4.946;2024-03-29T03:03:32;4.10;;;1.27;;
25091;SDS011;13082;52.374;4.946;2024-03-29T03:05:58;2.47;;;0.90;;
25091;SDS011;13082;52.374;4.946;2024-03-29T03:08:24;10.07;;;1.60;;
25091;SDS011;13082;52.374;4.946;2024-03-29T03:11:08;2.47;;;1.20;;
25091;SDS011;13082;52.374;4.946;2024-03-29T03:13:33;7.43;;;1.30;;
25091;SDS011;13082;52.374;4.946;2024-03-29T03:15:59;1.37;;;1.03;;
25091;SDS011;13082;52.374;4.946;2024-03-29T03:18:24;6.57;;;1.00;;
25091;SDS011;13082;52.374;4.946;2024-03-29T03:20:53;2.03;;;1.17;;
25091;SDS011;13082;52.374;4.946;2024-03-29T03:23:20;4.13;;;1.20;;
25091;SDS011;13082;52.374;4.946;2024-03-29T03:25:46;2.73;;;1.30;;
25091;SDS011;13082;52.374;4.946;2024-03-29T03:28:19;2.80;;;1.03;;
25091;SDS011;13082;52.374;4.946;2024-03-29T03:30:45;3.77;;;1.27;;
25091;SDS011;13082;52.374;4.946;2024-03-29T03:33:11;3.17;;;0.87;;
25091;SDS011;13082;52.374;4.946;2024-03-29T03:35:36;1.70;;;0.80;;
25091;SDS011;13082;52.374;4.946;2024-03-29T03:38:02;6.23;;;1.10;;
25091;SDS011;13082;52.374;4.946;2024-03-29T03:40:27;2.13;;;1.10;;
25091;SDS011;13082;52.374;4.946;2024-03-29T03:42:53;3.17;;;1.10;;
25091;SDS011;13082;52.374;4.946;2024-03-29T03:45:19;4.63;;;1.47;;
25091;SDS011;13082;52.374;4.946;2024-03-29T03:47:45;1.97;;;1.10;;
25091;SDS011;13082;52.374;4.946;2024-03-29T03:50:10;3.80;;;1.07;;
25091;SDS011;13082;52.374;4.946;2024-03-29T03:52:36;1.57;;;0.83;;
25091;SDS011;13082;52.374;4.946;2024-03-29T03:55:01;6.87;;;1.10;;
25091;SDS011;13082;52.374;4.946;2024-03-29T03:57:27;2.47;;;1.10;;
25091;SDS011;13082;52.374;4.946;2024-03-29T03:59:53;1.53;;;0.83;;
25091;SDS011;13082;52.374;4.946;2024-03-29T04:02:18;2.53;;;1.17;;
25091;SDS011;13082;52.374;4.946;2024-03-29T04:04:47;3.60;;;1.00;;
25091;SDS011;13082;52.374;4.946;2024-03-29T04:07:13;2.20;;;1.00;;
25091;SDS011;13082;52.374;4.946;2024-03-29T04:09:38;1.33;;;1.00;;
25091;SDS011;13082;52.374;4.946;2024-03-29T04:12:04;1.20;;;0.87;;
25091;SDS011;13082;52.374;4.946;2024-03-29T04:14:29;1.80;;;1.17;;
25091;SDS011;13082;52.374;4.946;2024-03-29T04:16:55;3.33;;;1.00;;
25091;SDS011;13082;52.374;4.946;2024-03-29T04:19:21;3.27;;;1.00;;
25091;SDS011;13082;52.374;4.946;2024-03-29T04:21:46;6.23;;;1.53;;
25091;SDS011;13082;52.374;4.946;2024-03-29T04:24:12;2.83;;;1.13;;
25091;SDS011;13082;52.374;4.946;2024-03-29T04:26:38;5.37;;;1.13;;
25091;SDS011;13082;52.374;4.946;2024-03-29T04:29:04;2.93;;;0.90;;
25091;SDS011;13082;52.374;4.946;2024-03-29T04:31:30;2.90;;;1.37;;
25091;SDS011;13082;52.374;4.946;2024-03-29T04:33:55;2.10;;;1.03;;
25091;SDS011;13082;52.374;4.946;2024-03-29T04:36:21;1.73;;;0.90;;
25091;SDS011;13082;52.374;4.946;2024-03-29T04:38:47;1.97;;;0.83;;
25091;SDS011;13082;52.374;4.946;2024-03-29T04:41:13;1.20;;;1.10;;
25091;SDS011;13082;52.374;4.946;2024-03-29T04:43:39;1.17;;;1.07;;
25091;SDS011;13082;52.374;4.946;2024-03-29T04:46:11;2.87;;;0.90;;
25091;SDS011;13082;52.374;4.946;2024-03-29T04:48:38;1.60;;;0.80;;
25091;SDS011;13082;52.374;4.946;2024-03-29T04:51:06;2.67;;;0.90;;
25091;SDS011;13082;52.374;4.946;2024-03-29T04:53:32;4.07;;;1.03;;
25091;SDS011;13082;52.374;4.946;2024-03-29T04:55:57;1.87;;;1.33;;
25091;SDS011;13082;52.374;4.946;2024-03-29T04:58:24;2.30;;;0.63;;
25091;SDS011;13082;52.374;4.946;2024-03-29T05:00:53;3.47;;;0.90;;
25091;SDS011;13082;52.374;4.946;2024-03-29T05:03:19;4.63;;;1.07;;
25091;SDS011;13082;52.374;4.946;2024-03-29T05:05:45;1.20;;;1.00;;
25091;SDS011;13082;52.374;4.946;2024-03-29T05:08:12;4.17;;;0.93;;
25091;SDS011;13082;52.374;4.946;2024-03-29T05:10:39;3.73;;;1.00;;
25091;SDS011;13082;52.374;4.946;2024-03-29T05:13:05;1.23;;;0.97;;
25091;SDS011;13082;52.374;4.946;2024-03-29T05:15:31;0.90;;;0.90;;
25091;SDS011;13082;52.374;4.946;2024-03-29T05:17:57;1.97;;;0.70;;
25091;SDS011;13082;52.374;4.946;2024-03-29T05:20:22;1.27;;;0.70;;
25091;SDS011;13082;52.374;4.946;2024-03-29T05:22:48;1.10;;;0.90;;
25091;SDS011;13082;52.374;4.946;2024-03-29T05:25:13;4.13;;;0.83;;
25091;SDS011;13082;52.374;4.946;2024-03-29T05:27:39;1.13;;;0.70;;
25091;SDS011;13082;52.374;4.946;2024-03-29T05:30:05;2.30;;;0.90;;
25091;SDS011;13082;52.374;4.946;2024-03-29T05:32:31;0.53;;;0.53;;
25091;SDS011;13082;52.374;4.946;2024-03-29T05:34:57;3.90;;;1.20;;
25091;SDS011;13082;52.374;4.946;2024-03-29T05:37:23;0.70;;;0.60;;
25091;SDS011;13082;52.374;4.946;2024-03-29T05:39:50;0.50;;;0.50;;
25091;SDS011;13082;52.374;4.946;2024-03-29T05:42:27;0.63;;;0.63;;
25091;SDS011;13082;52.374;4.946;2024-03-29T05:44:54;0.80;;;0.70;;
25091;SDS011;13082;52.374;4.946;2024-03-29T05:47:20;1.87;;;0.60;;
25091;SDS011;13082;52.374;4.946;2024-03-29T05:49:45;0.60;;;0.60;;
25091;SDS011;13082;52.374;4.946;2024-03-29T05:52:12;0.50;;;0.50;;
25091;SDS011;13082;52.374;4.946;2024-03-29T05:54:41;0.67;;;0.67;;
25091;SDS011;13082;52.374;4.946;2024-03-29T05:57:07;0.50;;;0.50;;
25091;SDS011;13082;52.374;4.946;2024-03-29T05:59:33;0.70;;;0.60;;
25091;SDS011;13082;52.374;4.946;2024-03-29T06:01:59;0.93;;;0.53;;
25091;SDS011;13082;52.374;4.946;2024-03-29T06:04:25;1.03;;;0.70;;
25091;SDS011;13082;52.374;4.946;2024-03-29T06:06:57;0.60;;;0.60;;
25091;SDS011;13082;52.374;4.946;2024-03-29T06:09:26;0.50;;;0.50;;
25091;SDS011;13082;52.374;4.946;2024-03-29T06:11:53;1.60;;;0.60;;
25091;SDS011;13082;52.374;4.946;2024-03-29T06:14:24;1.40;;;0.77;;
25091;SDS011;13082;52.374;4.946;2024-03-29T06:17:09;1.60;;;0.60;;
25091;SDS011;13082;52.374;4.946;2024-03-29T06:19:50;0.60;;;0.60;;
25091;SDS011;13082;52.374;4.946;2024-03-29T06:22:17;1.03;;;0.70;;
25091;SDS011;13082;52.374;4.946;2024-03-29T06:24:43;2.50;;;0.90;;
25091;SDS011;13082;52.374;4.946;2024-03-29T06:27:09;1.20;;;0.63;;
25091;SDS011;13082;52.374;4.946;2024-03-29T06:29:35;0.87;;;0.63;;
25091;SDS011;13082;52.374;4.946;2024-03-29T06:32:01;0.70;;;0.70;;
25091;SDS011;13082;52.374;4.946;2024-03-29T06:34:30;1.33;;;0.90;;
25091;SDS011;13082;52.374;4.946;2024-03-29T06:36:56;0.83;;;0.70;;
25091;SDS011;13082;52.374;4.946;2024-03-29T06:39:22;0.70;;;0.70;;
25091;SDS011;13082;52.374;4.946;2024-03-29T06:41:47;2.97;;;0.73;;
25091;SDS011;13082;52.374;4.946;2024-03-29T06:44:13;0.57;;;0.57;;
25091;SDS011;13082;52.374;4.946;2024-03-29T06:46:39;1.17;;;0.60;;
25091;SDS011;13082;52.374;4.946;2024-03-29T06:49:04;1.67;;;0.70;;
25091;SDS011;13082;52.374;4.946;2024-03-29T06:51:30;0.67;;;0.67;;
25091;SDS011;13082;52.374;4.946;2024-03-29T06:53:56;2.83;;;0.70;;
25091;SDS011;13082;52.374;4.946;2024-03-29T06:56:21;0.70;;;0.70;;
25091;SDS011;13082;52.374;4.946;2024-03-29T06:58:47;1.13;;;1.00;;
25091;SDS011;13082;52.374;4.946;2024-03-29T07:01:12;1.80;;;0.67;;
25091;SDS011;13082;52.374;4.946;2024-03-29T07:03:38;1.80;;;0.90;;
25091;SDS011;13082;52.374;4.946;2024-03-29T07:06:04;1.48;;;0.90;;
25091;SDS011;13082;52.374;4.946;2024-03-29T07:08:30;1.13;;;1.03;;
25091;SDS011;13082;52.374;4.946;2024-03-29T07:10:59;0.90;;;0.90;;
25091;SDS011;13082;52.374;4.946;2024-03-29T07:13:27;0.80;;;0.80;;
25091;SDS011;13082;52.374;4.946;2024-03-29T07:15:55;0.83;;;0.70;;
25091;SDS011;13082;52.374;4.946;2024-03-29T07:18:20;2.30;;;0.70;;
25091;SDS011;13082;52.374;4.946;2024-03-29T07:20:46;0.53;;;0.53;;
25091;SDS011;13082;52.374;4.946;2024-03-29T07:23:12;2.93;;;0.93;;
25091;SDS011;13082;52.374;4.946;2024-03-29T07:25:39;1.07;;;0.90;;
25091;SDS011;13082;52.374;4.946;2024-03-29T07:28:05;0.70;;;0.70;;
25091;SDS011;13082;52.374;4.946;2024-03-29T07:30:30;0.97;;;0.60;;
25091;SDS011;13082;52.374;4.946;2024-03-29T07:32:56;4.77;;;1.20;;
25091;SDS011;13082;52.374;4.946;2024-03-29T07:35:21;3.43;;;0.73;;
25091;SDS011;13082;52.374;4.946;2024-03-29T07:37:47;2.83;;;1.37;;
25091;SDS011;13082;52.374;4.946;2024-03-29T07:40:15;2.03;;;0.67;;
25091;SDS011;13082;52.374;4.946;2024-03-29T07:42:41;1.80;;;0.63;;
25091;SDS011;13082;52.374;4.946;2024-03-29T07:45:06;0.97;;;0.87;;
25091;SDS011;13082;52.374;4.946;2024-03-29T07:47:32;1.23;;;0.80;;
25091;SDS011;13082;52.374;4.946;2024-03-29T07:49:58;1.87;;;0.67;;
25091;SDS011;13082;52.374;4.946;2024-03-29T07:52:23;1.93;;;1.07;;
25091;SDS011;13082;52.374;4.946;2024-03-29T07:54:50;0.97;;;0.70;;
25091;SDS011;13082;52.374;4.946;2024-03-29T07:57:16;0.97;;;0.80;;
25091;SDS011;13082;52.374;4.946;2024-03-29T07:59:42;1.57;;;0.70;;
25091;SDS011;13082;52.374;4.946;2024-03-29T08:02:07;0.70;;;0.70;;
25091;SDS011;13082;52.374;4.946;2024-03-29T08:04:33;0.70;;;0.70;;
25091;SDS011;13082;52.374;4.946;2024-03-29T08:06:59;3.30;;;0.70;;
25091;SDS011;13082;52.374;4.946;2024-03-29T08:09:25;0.87;;;0.80;;
25091;SDS011;13082;52.374;4.946;2024-03-29T08:11:51;0.80;;;0.80;;
25091;SDS011;13082;52.374;4.946;2024-03-29T08:14:16;2.27;;;1.03;;
25091;SDS011;13082;52.374;4.946;2024-03-29T08:16:42;3.30;;;0.70;;
25091;SDS011;13082;52.374;4.946;2024-03-29T08:19:08;1.97;;;0.97;;
25091;SDS011;13082;52.374;4.946;2024-03-29T08:21:34;0.97;;;0.70;;
25091;SDS011;13082;52.374;4.946;2024-03-29T08:24:00;1.00;;;0.90;;
25091;SDS011;13082;52.374;4.946;2024-03-29T08:26:26;1.70;;;1.10;;
25091;SDS011;13082;52.374;4.946;2024-03-29T08:28:53;1.17;;;0.70;;
25091;SDS011;13082;52.374;4.946;2024-03-29T08:31:19;1.27;;;1.00;;
25091;SDS011;13082;52.374;4.946;2024-03-29T08:33:45;0.80;;;0.80;;
25091;SDS011;13082;52.374;4.946;2024-03-29T08:36:10;1.90;;;1.00;;
25091;SDS011;13082;52.374;4.946;2024-03-29T08:38:37;0.70;;;0.70;;
25091;SDS011;13082;52.374;4.946;2024-03-29T08:41:06;1.77;;;0.90;;
25091;SDS011;13082;52.374;4.946;2024-03-29T08:43:32;0.60;;;0.60;;
25091;SDS011;13082;52.374;4.946;2024-03-29T08:45:58;0.77;;;0.77;;
25091;SDS011;13082;52.374;4.946;2024-03-29T08:48:24;0.67;;;0.67;;
25091;SDS011;13082;52.374;4.946;2024-03-29T08:50:50;0.90;;;0.77;;
25091;SDS011;13082;52.374;4.946;2024-03-29T08:53:16;0.70;;;0.70;;
25091;SDS011;13082;52.374;4.946;2024-03-29T08:55:41;1.20;;;1.20;;
25091;SDS011;13082;52.374;4.946;2024-03-29T08:58:07;2.60;;;1.00;;
25091;SDS011;13082;52.374;4.946;2024-03-29T09:00:32;1.30;;;1.00;;
25091;SDS011;13082;52.374;4.946;2024-03-29T09:02:58;1.00;;;0.87;;
25091;SDS011;13082;52.374;4.946;2024-03-29T09:05:24;1.27;;;1.17;;
25091;SDS011;13082;52.374;4.946;2024-03-29T09:07:52;0.80;;;0.80;;
25091;SDS011;13082;52.374;4.946;2024-03-29T09:10:18;2.77;;;1.60;;
25091;SDS011;13082;52.374;4.946;2024-03-29T09:12:43;2.67;;;1.23;;
25091;SDS011;13082;52.374;4.946;2024-03-29T09:15:09;1.50;;;0.83;;
25091;SDS011;13082;52.374;4.946;2024-03-29T09:17:41;1.03;;;1.03;;
25091;SDS011;13082;52.374;4.946;2024-03-29T09:20:08;2.97;;;0.90;;
25091;SDS011;13082;52.374;4.946;2024-03-29T09:22:34;0.80;;;0.80;;
25091;SDS011;13082;52.374;4.946;2024-03-29T09:25:00;1.33;;;0.97;;
25091;SDS011;13082;52.374;4.946;2024-03-29T09:27:26;1.13;;;0.87;;
25091;SDS011;13082;52.374;4.946;2024-03-29T09:29:54;2.17;;;1.10;;
25091;SDS011;13082;52.374;4.946;2024-03-29T09:32:21;0.70;;;0.70;;
25091;SDS011;13082;52.374;4.946;2024-03-29T09:34:47;2.73;;;1.20;;
25091;SDS011;13082;52.374;4.946;2024-03-29T09:37:13;1.00;;;0.80;;
25091;SDS011;13082;52.374;4.946;2024-03-29T09:39:40;1.00;;;0.90;;
25091;SDS011;13082;52.374;4.946;2024-03-29T09:42:06;0.87;;;0.80;;
25091;SDS011;13082;52.374;4.946;2024-03-29T09:44:34;0.80;;;0.80;;
25091;SDS011;13082;52.374;4.946;2024-03-29T09:47:02;0.83;;;0.83;;
25091;SDS011;13082;52.374;4.946;2024-03-29T09:49:29;0.70;;;0.70;;
25091;SDS011;13082;52.374;4.946;2024-03-29T09:51:56;1.43;;;0.80;;
25091;SDS011;13082;52.374;4.946;2024-03-29T09:54:22;0.70;;;0.70;;
25091;SDS011;13082;52.374;4.946;2024-03-29T09:56:51;1.47;;;1.07;;
25091;SDS011;13082;52.374;4.946;2024-03-29T09:59:17;0.90;;;0.90;;
25091;SDS011;13082;52.374;4.946;2024-03-29T10:01:43;1.43;;;1.33;;
25091;SDS011;13082;52.374;4.946;2024-03-29T10:04:08;1.07;;;0.80;;
25091;SDS011;13082;52.374;4.946;2024-03-29T10:06:34;1.50;;;1.10;;
25091;SDS011;13082;52.374;4.946;2024-03-29T10:09:03;1.07;;;1.00;;
25091;SDS011;13082;52.374;4.946;2024-03-29T10:11:30;1.37;;;1.27;;
25091;SDS011;13082;52.374;4.946;2024-03-29T10:13:56;1.10;;;1.10;;
25091;SDS011;13082;52.374;4.946;2024-03-29T10:16:21;1.60;;;1.50;;
25091;SDS011;13082;52.374;4.946;2024-03-29T10:18:49;1.20;;;1.20;;
25091;SDS011;13082;52.374;4.946;2024-03-29T10:21:15;1.57;;;1.40;;
25091;SDS011;13082;52.374;4.946;2024-03-29T10:23:40;1.60;;;1.50;;
25091;SDS011;13082;52.374;4.946;2024-03-29T10:26:08;1.10;;;1.10;;
25091;SDS011;13082;52.374;4.946;2024-03-29T10:28:34;1.53;;;1.43;;
25091;SDS011;13082;52.374;4.946;2024-03-29T10:31:02;1.47;;;1.37;;
25091;SDS011;13082;52.374;4.946;2024-03-29T10:33:29;1.20;;;1.10;;
25091;SDS011;13082;52.374;4.946;2024-03-29T10:36:01;1.10;;;1.10;;
25091;SDS011;13082;52.374;4.946;2024-03-29T10:38:31;2.20;;;1.07;;
25091;SDS011;13082;52.374;4.946;2024-03-29T10:40:56;1.17;;;1.13;;
25091;SDS011;13082;52.374;4.946;2024-03-29T10:43:22;0.93;;;0.93;;
25091;SDS011;13082;52.374;4.946;2024-03-29T10:45:49;2.90;;;1.13;;
25091;SDS011;13082;52.374;4.946;2024-03-29T10:48:17;9.17;;;1.30;;
25091;SDS011;13082;52.374;4.946;2024-03-29T10:50:46;1.40;;;1.30;;
25091;SDS011;13082;52.374;4.946;2024-03-29T10:53:16;1.37;;;1.27;;
25091;SDS011;13082;52.374;4.946;2024-03-29T10:55:42;2.43;;;1.60;;
25091;SDS011;13082;52.374;4.946;2024-03-29T10:58:10;1.70;;;1.60;;
25091;SDS011;13082;52.374;4.946;2024-03-29T11:00:42;1.83;;;1.73;;
25091;SDS011;13082;52.374;4.946;2024-03-29T11:03:13;2.10;;;1.77;;
25091;SDS011;13082;52.374;4.946;2024-03-29T11:05:50;1.97;;;1.87;;
25091;SDS011;13082;52.374;4.946;2024-03-29T11:08:23;3.50;;;1.63;;
25091;SDS011;13082;52.374;4.946;2024-03-29T11:10:53;2.73;;;1.67;;
25091;SDS011;13082;52.374;4.946;2024-03-29T11:16:00;1.90;;;1.80;;
25091;SDS011;13082;52.374;4.946;2024-03-29T11:18:26;2.57;;;2.00;;
25091;SDS011;13082;52.374;4.946;2024-03-29T11:20:53;2.13;;;1.93;;
25091;SDS011;13082;52.374;4.946;2024-03-29T11:23:21;4.40;;;2.57;;
25091;SDS011;13082;52.374;4.946;2024-03-29T11:25:50;1.80;;;1.70;;
25091;SDS011;13082;52.374;4.946;2024-03-29T11:28:27;2.23;;;2.10;;
25091;SDS011;13082;52.374;4.946;2024-03-29T11:31:01;2.87;;;2.67;;
25091;SDS011;13082;52.374;4.946;2024-03-29T11:33:34;2.03;;;1.93;;
25091;SDS011;13082;52.374;4.946;2024-03-29T11:36:22;2.53;;;2.20;;
25091;SDS011;13082;52.374;4.946;2024-03-29T11:38:52;3.57;;;2.37;;
25091;SDS011;13082;52.374;4.946;2024-03-29T11:41:23;2.40;;;2.20;;
25091;SDS011;13082;52.374;4.946;2024-03-29T11:43:58;2.33;;;2.13;;
25091;SDS011;13082;52.374;4.946;2024-03-29T11:46:24;2.60;;;2.40;;
25091;SDS011;13082;52.374;4.946;2024-03-29T11:48:50;2.13;;;2.00;;
25091;SDS011;13082;52.374;4.946;2024-03-29T11:51:20;4.67;;;1.97;;
25091;SDS011;13082;52.374;4.946;2024-03-29T11:53:49;2.00;;;1.90;;
25091;SDS011;13082;52.374;4.946;2024-03-29T11:56:18;2.43;;;2.30;;
25091;SDS011;13082;52.374;4.946;2024-03-29T11:58:44;2.87;;;2.17;;
25091;SDS011;13082;52.374;4.946;2024-03-29T12:01:10;3.77;;;2.40;;
25091;SDS011;13082;52.374;4.946;2024-03-29T12:03:39;2.60;;;2.40;;
25091;SDS011;13082;52.374;4.946;2024-03-29T12:06:06;2.67;;;2.47;;
25091;SDS011;13082;52.374;4.946;2024-03-29T12:08:32;4.10;;;2.53;;
25091;SDS011;13082;52.374;4.946;2024-03-29T12:11:00;3.73;;;2.80;;
25091;SDS011;13082;52.374;4.946;2024-03-29T12:13:27;2.50;;;2.30;;
25091;SDS011;13082;52.374;4.946;2024-03-29T12:15:53;2.20;;;2.00;;
25091;SDS011;13082;52.374;4.946;2024-03-29T12:18:20;2.63;;;2.43;;
25091;SDS011;13082;52.374;4.946;2024-03-29T12:20:47;2.40;;;2.20;;
25091;SDS011;13082;52.374;4.946;2024-03-29T12:23:15;4.47;;;2.10;;
25091;SDS011;13082;52.374;4.946;2024-03-29T12:25:42;2.17;;;2.03;;
25091;SDS011;13082;52.374;4.946;2024-03-29T12:28:08;3.27;;;2.17;;
25091;SDS011;13082;52.374;4.946;2024-03-29T12:30:35;2.73;;;2.20;;
25091;SDS011;13082;52.374;4.946;2024-03-29T12:33:08;2.33;;;1.83;;
25091;SDS011;13082;52.374;4.946;2024-03-29T12:35:37;3.60;;;1.90;;
25091;SDS011;13082;52.374;4.946;2024-03-29T12:38:03;1.80;;;1.70;;
25091;SDS011;13082;52.374;4.946;2024-03-29T12:40:30;1.73;;;1.63;;
25091;SDS011;13082;52.374;4.946;2024-03-29T12:43:01;2.13;;;1.93;;
25091;SDS011;13082;52.374;4.946;2024-03-29T12:45:30;1.47;;;1.37;;
25091;SDS011;13082;52.374;4.946;2024-03-29T12:47:55;1.87;;;1.50;;
25091;SDS011;13082;52.374;4.946;2024-03-29T12:50:25;1.90;;;1.80;;
25091;SDS011;13082;52.374;4.946;2024-03-29T12:52:53;2.87;;;1.60;;
25091;SDS011;13082;52.374;4.946;2024-03-29T12:55:23;3.17;;;1.77;;
25091;SDS011;13082;52.374;4.946;2024-03-29T12:57:49;1.60;;;1.40;;
25091;SDS011;13082;52.374;4.946;2024-03-29T13:00:18;1.87;;;1.77;;
25091;SDS011;13082;52.374;4.946;2024-03-29T13:02:47;4.37;;;1.93;;
25091;SDS011;13082;52.374;4.946;2024-03-29T13:05:13;2.60;;;1.87;;
25091;SDS011;13082;52.374;4.946;2024-03-29T13:07:38;3.63;;;1.87;;
25091;SDS011;13082;52.374;4.946;2024-03-29T13:10:04;2.07;;;1.57;;
25091;SDS011;13082;52.374;4.946;2024-03-29T13:12:45;4.73;;;1.60;;
25091;SDS011;13082;52.374;4.946;2024-03-29T13:15:25;1.80;;;1.47;;
25091;SDS011;13082;52.374;4.946;2024-03-29T13:17:52;2.63;;;1.70;;
25091;SDS011;13082;52.374;4.946;2024-03-29T13:20:19;2.10;;;1.77;;
25091;SDS011;13082;52.374;4.946;2024-03-29T13:22:46;2.50;;;1.53;;
25091;SDS011;13082;52.374;4.946;2024-03-29T13:25:14;4.33;;;1.57;;
25091;SDS011;13082;52.374;4.946;2024-03-29T13:27:42;2.93;;;1.50;;
25091;SDS011;13082;52.374;4.946;2024-03-29T13:30:09;2.10;;;1.30;;
25091;SDS011;13082;52.374;4.946;2024-03-29T13:32:37;2.87;;;1.97;;
25091;SDS011;13082;52.374;4.946;2024-03-29T13:35:04;2.37;;;2.13;;
25091;SDS011;13082;52.374;4.946;2024-03-29T13:37:34;1.73;;;1.60;;
25091;SDS011;13082;52.374;4.946;2024-03-29T13:40:03;1.93;;;1.73;;
25091;SDS011;13082;52.374;4.946;2024-03-29T13:42:30;2.77;;;2.13;;
25091;SDS011;13082;52.374;4.946;2024-03-29T13:44:56;3.03;;;1.70;;
25091;SDS011;13082;52.374;4.946;2024-03-29T13:47:22;2.17;;;2.03;;
25091;SDS011;13082;52.374;4.946;2024-03-29T13:49:47;2.40;;;2.20;;
25091;SDS011;13082;52.374;4.946;2024-03-29T13:52:15;2.90;;;2.23;;
25091;SDS011;13082;52.374;4.946;2024-03-29T13:54:44;3.93;;;2.10;;
25091;SDS011;13082;52.374;4.946;2024-03-29T13:57:16;2.60;;;2.40;;
25091;SDS011;13082;52.374;4.946;2024-03-29T13:59:44;7.37;;;2.27;;
25091;SDS011;13082;52.374;4.946;2024-03-29T14:02:11;2.67;;;2.37;;
25091;SDS011;13082;52.374;4.946;2024-03-29T14:04:41;2.80;;;2.57;;
25091;SDS011;13082;52.374;4.946;2024-03-29T14:07:08;2.87;;;2.07;;
25091;SDS011;13082;52.374;4.946;2024-03-29T14:09:36;4.27;;;2.10;;
25091;SDS011;13082;52.374;4.946;2024-03-29T14:12:02;3.00;;;2.80;;
25091;SDS011;13082;52.374;4.946;2024-03-29T14:14:28;2.53;;;2.33;;
25091;SDS011;13082;52.374;4.946;2024-03-29T14:16:55;2.87;;;2.63;;
25091;SDS011;13082;52.374;4.946;2024-03-29T14:19:20;6.73;;;2.53;;
25091;SDS011;13082;52.374;4.946;2024-03-29T14:21:46;2.43;;;2.23;;
25091;SDS011;13082;52.374;4.946;2024-03-29T14:24:12;2.60;;;2.40;;
25091;SDS011;13082;52.374;4.946;2024-03-29T14:26:37;3.17;;;2.20;;
25091;SDS011;13082;52.374;4.946;2024-03-29T14:29:03;2.43;;;2.23;;
25091;SDS011;13082;52.374;4.946;2024-03-29T14:31:31;2.77;;;2.20;;
25091;SDS011;13082;52.374;4.946;2024-03-29T14:33:57;3.40;;;1.90;;
25091;SDS011;13082;52.374;4.946;2024-03-29T14:36:23;2.17;;;1.93;;
25091;SDS011;13082;52.374;4.946;2024-03-29T14:38:49;2.20;;;2.07;;
25091;SDS011;13082;52.374;4.946;2024-03-29T14:41:15;2.83;;;1.87;;
25091;SDS011;13082;52.374;4.946;2024-03-29T14:43:41;1.63;;;1.53;;
25091;SDS011;13082;52.374;4.946;2024-03-29T14:46:09;1.70;;;1.60;;
25091;SDS011;13082;52.374;4.946;2024-03-29T14:48:34;3.13;;;1.60;;